createdAt,value
2022-08-03T00:02:50.438Z,5.40
2022-08-03T00:06:04.120Z,5.17
2022-08-03T00:09:10.015Z,5.55
2022-08-03T00:12:14.251Z,5.27
2022-08-03T00:15:18.759Z,5.17
2022-08-03T00:18:23.095Z,5.17
2022-08-03T00:21:27.335Z,4.95
2022-08-03T00:24:31.411Z,5.03
2022-08-03T00:27:35.477Z,4.42
2022-08-03T00:30:39.810Z,5.40
2022-08-03T00:33:58.905Z,5.22
2022-08-03T00:37:07.185Z,4.80
2022-08-03T00:40:13.972Z,5.22
2022-08-03T00:43:18.296Z,4.97
2022-08-03T00:46:22.155Z,4.72
2022-08-03T00:49:26.229Z,4.97
2022-08-03T00:52:30.147Z,4.90
2022-08-03T00:55:36.005Z,5.70
2022-08-03T00:58:40.132Z,5.25
2022-08-03T01:01:44.286Z,4.75
2022-08-03T01:04:48.332Z,4.70
2022-08-03T01:08:07.861Z,5.08
2022-08-03T01:11:19.256Z,4.83
2022-08-03T01:14:32.533Z,5.37
2022-08-03T01:17:45.088Z,5.00
2022-08-03T01:20:58.231Z,5.62
2022-08-03T01:24:23.574Z,5.12
2022-08-03T01:27:42.255Z,5.00
2022-08-03T01:30:47.839Z,5.20
2022-08-03T01:33:59.218Z,6.00
2022-08-03T01:37:08.019Z,5.03
2022-08-03T01:40:14.526Z,5.72
2022-08-03T01:43:58.986Z,5.05
2022-08-03T01:46:50.782Z,5.00
2022-08-03T01:49:57.700Z,5.00
2022-08-03T01:53:03.133Z,5.30
2022-08-03T01:56:08.648Z,4.50
2022-08-03T01:59:14.993Z,5.15
2022-08-03T02:02:33.608Z,5.10
2022-08-03T02:05:41.131Z,5.30
2022-08-03T02:08:47.558Z,5.47
2022-08-03T02:11:53.188Z,5.20
2022-08-03T02:14:59.936Z,4.47
2022-08-03T02:18:09.948Z,4.80
2022-08-03T02:21:55.950Z,4.60
2022-08-03T02:24:40.112Z,4.97
2022-08-03T02:27:51.454Z,4.55
2022-08-03T02:30:57.083Z,4.37
2022-08-03T02:34:03.617Z,4.70
2022-08-03T02:37:10.226Z,4.60
2022-08-03T02:40:20.876Z,5.00
2022-08-03T02:43:26.458Z,4.65
2022-08-03T02:46:34.038Z,4.97
2022-08-03T02:49:51.675Z,4.80
2022-08-03T02:52:58.593Z,5.10
2022-08-03T02:56:04.625Z,5.37
2022-08-03T02:59:10.458Z,5.25
2022-08-03T03:02:17.232Z,5.08
2022-08-03T03:05:55.015Z,5.17
2022-08-03T03:08:51.662Z,5.20
2022-08-03T03:11:56.743Z,5.60
2022-08-03T03:15:00.731Z,5.40
2022-08-03T03:18:05.800Z,5.25
2022-08-03T03:21:11.304Z,5.90
2022-08-03T03:24:16.324Z,6.23
2022-08-03T03:27:20.840Z,5.22
2022-08-03T03:30:25.491Z,5.55
2022-08-03T03:33:29.703Z,5.75
2022-08-03T03:36:33.896Z,5.12
2022-08-03T03:39:37.725Z,5.80
2022-08-03T03:42:42.831Z,5.28
2022-08-03T03:45:47.577Z,5.65
2022-08-03T03:48:51.607Z,5.87
2022-08-03T03:51:56.336Z,5.27
2022-08-03T03:55:01.201Z,6.12
2022-08-03T03:58:06.071Z,6.75
2022-08-03T04:01:10.392Z,5.97
2022-08-03T04:04:32.709Z,5.78
2022-08-03T04:08:04.724Z,5.65
2022-08-03T04:11:14.858Z,5.90
2022-08-03T04:14:22.777Z,6.17
2022-08-03T04:17:29.185Z,5.40
2022-08-03T04:20:35.347Z,5.97
2022-08-03T04:23:44.570Z,6.42
2022-08-03T04:26:52.782Z,5.60
2022-08-03T04:29:59.641Z,6.05
2022-08-03T04:33:03.589Z,5.90
2022-08-03T04:36:12.551Z,5.73
2022-08-03T04:39:23.847Z,5.78
2022-08-03T04:42:28.368Z,5.28
2022-08-03T04:45:35.856Z,5.75
2022-08-03T04:48:44.595Z,5.73
2022-08-03T04:51:49.419Z,5.33
2022-08-03T04:54:53.389Z,5.43
2022-08-03T04:57:57.518Z,5.28
2022-08-03T05:01:01.851Z,5.37
2022-08-03T05:04:05.797Z,4.70
2022-08-03T05:07:12.433Z,5.15
2022-08-03T05:10:17.145Z,4.95
2022-08-03T05:13:21.763Z,5.05
2022-08-03T05:16:26.305Z,5.17
2022-08-03T05:19:30.397Z,5.45
2022-08-03T05:22:34.222Z,4.65
2022-08-03T05:25:38.631Z,4.78
2022-08-03T05:28:50.850Z,4.60
2022-08-03T05:31:55.421Z,4.70
2022-08-03T05:35:00.411Z,4.90
2022-08-03T05:38:33.185Z,4.62
2022-08-03T05:41:39.760Z,4.35
2022-08-03T05:44:43.726Z,4.80
2022-08-03T05:47:50.540Z,4.90
2022-08-03T05:50:54.496Z,4.20
2022-08-03T05:53:58.412Z,4.10
2022-08-03T05:57:02.636Z,4.15
2022-08-03T06:00:09.893Z,4.13
2022-08-03T06:03:16.468Z,4.05
2022-08-03T06:06:24.070Z,4.35
2022-08-03T06:10:33.196Z,4.58
2022-08-03T06:12:53.605Z,4.40
2022-08-03T06:15:57.696Z,4.30
2022-08-03T06:19:01.472Z,4.28
2022-08-03T06:22:05.362Z,4.37
2022-08-03T06:25:12.955Z,3.85
2022-08-03T06:28:51.178Z,4.33
2022-08-03T06:31:42.371Z,4.20
2022-08-03T06:34:46.347Z,4.10
2022-08-03T06:37:51.359Z,4.30
2022-08-03T06:40:55.268Z,4.33
2022-08-03T06:44:03.486Z,4.73
2022-08-03T06:47:08.140Z,4.33
2022-08-03T06:50:16.974Z,4.30
2022-08-03T06:53:22.135Z,4.70
2022-08-03T06:56:25.896Z,4.40
2022-08-03T07:00:09.904Z,4.20
2022-08-03T07:02:58.048Z,4.60
2022-08-03T07:06:03.495Z,4.60
2022-08-03T07:09:07.566Z,4.60
2022-08-03T07:12:11.935Z,4.17
2022-08-03T07:15:20.554Z,4.40
2022-08-03T07:18:42.105Z,4.33
2022-08-03T07:21:46.787Z,4.17
2022-08-03T07:24:50.791Z,4.08
2022-08-03T07:27:54.697Z,4.25
2022-08-03T07:31:00.309Z,4.20
2022-08-03T07:34:04.447Z,4.30
2022-08-03T07:37:09.667Z,4.10
2022-08-03T07:40:13.651Z,4.00
2022-08-03T07:43:18.116Z,4.20
2022-08-03T07:46:22.239Z,4.08
2022-08-03T07:49:30.891Z,4.53
2022-08-03T07:52:49.575Z,3.92
2022-08-03T07:55:53.943Z,4.58
2022-08-03T07:59:02.485Z,4.20
2022-08-03T08:02:07.316Z,3.80
2022-08-03T08:05:11.979Z,4.10
2022-08-03T08:08:16.304Z,3.98
2022-08-03T08:11:24.349Z,4.15
2022-08-03T08:17:31.130Z,4.03
2022-08-03T08:20:38.035Z,3.70
2022-08-03T08:23:44.878Z,3.87
2022-08-03T08:26:50.890Z,3.77
2022-08-03T08:30:00.563Z,3.67
2022-08-03T08:33:22.340Z,3.70
2022-08-03T08:36:27.796Z,3.55
2022-08-03T08:39:32.008Z,3.80
2022-08-03T08:42:40.262Z,3.70
2022-08-03T08:45:49.340Z,3.65
2022-08-03T08:48:54.622Z,4.00
2022-08-03T08:52:01.158Z,3.87
2022-08-03T08:55:09.559Z,3.65
2022-08-03T08:58:20.790Z,3.45
2022-08-03T09:01:28.087Z,4.33
2022-08-03T09:04:32.257Z,3.90
2022-08-03T09:07:36.905Z,3.50
2022-08-03T09:10:43.762Z,4.08
2022-08-03T09:13:48.048Z,3.58
2022-08-03T09:17:00.398Z,3.58
2022-08-03T09:20:09.381Z,3.60
2022-08-03T09:23:59.732Z,3.47
2022-08-03T09:26:38.399Z,3.27
2022-08-03T09:29:47.845Z,3.53
2022-08-03T09:32:59.856Z,3.20
2022-08-03T09:36:04.395Z,3.67
2022-08-03T09:39:10.964Z,3.72
2022-08-03T09:42:17.139Z,3.80
2022-08-03T09:45:27.762Z,3.90
2022-08-03T09:48:34.297Z,3.55
2022-08-03T09:52:39.324Z,3.87
2022-08-03T09:55:07.664Z,3.65
2022-08-03T09:58:32.477Z,3.70
2022-08-03T10:01:38.222Z,3.95
2022-08-03T10:04:51.978Z,3.80
2022-08-03T10:07:56.231Z,3.70
2022-08-03T10:11:00.176Z,3.60
2022-08-03T10:14:06.637Z,3.87
2022-08-03T10:17:15.444Z,3.72
2022-08-03T10:20:20.008Z,3.30
2022-08-03T10:23:26.183Z,3.27
2022-08-03T10:26:33.086Z,2.90
2022-08-03T10:29:42.910Z,3.27
2022-08-03T10:32:52.498Z,3.60
2022-08-03T10:35:59.325Z,3.20
2022-08-03T10:39:04.203Z,3.13
2022-08-03T10:42:27.140Z,3.73
2022-08-03T10:45:34.264Z,3.27
2022-08-03T10:48:39.525Z,2.95
2022-08-03T10:51:44.604Z,2.77
2022-08-03T10:55:10.962Z,2.33
2022-08-03T10:58:15.459Z,2.40
2022-08-03T11:02:00.338Z,2.70
2022-08-03T11:05:36.052Z,2.77
2022-08-03T11:08:40.956Z,2.67
2022-08-03T11:11:48.558Z,2.33
2022-08-03T11:14:55.052Z,2.45
2022-08-03T11:18:11.200Z,2.40
2022-08-03T11:21:15.636Z,2.70
2022-08-03T11:24:53.435Z,2.55
2022-08-03T11:28:26.802Z,2.45
2022-08-03T11:31:50.130Z,2.08
2022-08-03T11:35:10.445Z,2.27
2022-08-03T11:38:14.380Z,2.43
2022-08-03T11:41:44.936Z,2.70
2022-08-03T11:44:50.301Z,2.87
2022-08-03T11:47:55.766Z,2.83
2022-08-03T12:01:35.912Z,2.50
2022-08-03T12:04:58.364Z,2.50
2022-08-03T12:08:09.266Z,2.80
2022-08-03T12:11:21.989Z,2.53
2022-08-03T12:14:50.665Z,2.62
2022-08-03T12:18:03.018Z,2.70
2022-08-03T12:21:12.206Z,3.00
2022-08-03T12:24:20.379Z,2.70
2022-08-03T12:27:30.381Z,2.60
2022-08-03T12:30:38.036Z,2.80
2022-08-03T12:34:07.329Z,2.98
2022-08-03T12:37:28.996Z,2.70
2022-08-03T12:40:36.673Z,2.77
2022-08-03T12:47:00.600Z,2.67
2022-08-03T12:50:08.714Z,2.67
2022-08-03T12:53:29.643Z,2.72
2022-08-03T12:56:39.482Z,2.72
2022-08-03T12:59:53.621Z,3.17
2022-08-03T13:06:35.978Z,2.83
2022-08-03T13:09:48.909Z,2.90
2022-08-03T13:12:58.662Z,2.85
2022-08-03T13:16:07.266Z,2.80
2022-08-03T13:19:15.471Z,2.70
2022-08-03T13:22:25.785Z,2.85
2022-08-03T13:25:34.238Z,2.92
2022-08-03T13:31:50.490Z,2.75
2022-08-03T13:34:59.136Z,2.83
2022-08-03T13:38:06.439Z,2.87
2022-08-03T13:41:16.378Z,2.80
2022-08-03T13:44:29.713Z,2.92
2022-08-03T13:47:37.946Z,3.10
2022-08-03T13:50:45.300Z,2.92
2022-08-03T13:53:55.357Z,2.87
2022-08-03T13:58:02.399Z,2.72
2022-08-03T14:00:30.070Z,2.92
2022-08-03T14:03:37.550Z,2.80
2022-08-03T14:06:49.444Z,2.80
2022-08-03T14:09:58.184Z,2.80
2022-08-03T14:13:08.160Z,3.20
2022-08-03T14:16:16.867Z,2.90
2022-08-03T14:19:24.906Z,2.77
2022-08-03T14:22:33.186Z,3.00
2022-08-03T14:25:43.215Z,3.25
2022-08-03T14:28:57.768Z,2.92
2022-08-03T14:32:10.362Z,2.87
2022-08-03T14:35:19.810Z,2.55
2022-08-03T14:38:34.459Z,2.62
2022-08-03T14:41:41.932Z,2.87
2022-08-03T14:44:49.760Z,2.98
2022-08-03T14:50:29.395Z,2.40
2022-08-03T14:51:24.564Z,2.75
2022-08-03T14:54:32.187Z,2.80
2022-08-03T14:57:39.360Z,3.30
2022-08-03T15:00:47.602Z,3.05
2022-08-03T15:03:54.983Z,2.42
2022-08-03T15:07:02.634Z,2.90
2022-08-03T15:10:10.786Z,2.67
2022-08-03T15:13:18.529Z,2.95
2022-08-03T15:16:29.841Z,2.80
2022-08-03T15:20:03.681Z,3.17
2022-08-03T15:23:04.858Z,2.80
2022-08-03T15:26:32.673Z,2.80
2022-08-03T15:30:08.920Z,3.70
2022-08-03T15:33:07.382Z,3.30
2022-08-03T15:36:14.905Z,2.95
2022-08-03T15:39:22.450Z,3.25
2022-08-03T15:42:30.794Z,2.85
2022-08-03T15:45:38.227Z,2.87
2022-08-03T15:48:45.507Z,2.98
2022-08-03T15:51:53.071Z,2.83
2022-08-03T15:55:00.351Z,2.98
2022-08-03T15:59:03.616Z,3.17
2022-08-03T16:01:35.060Z,2.92
2022-08-03T16:04:44.385Z,3.00
2022-08-03T16:08:03.063Z,3.05
2022-08-03T16:11:12.042Z,2.70
2022-08-03T16:14:35.632Z,2.60
2022-08-03T16:17:50.956Z,2.70
2022-08-03T16:21:00.243Z,2.80
2022-08-03T16:24:08.465Z,3.27
2022-08-03T16:27:37.088Z,4.28
2022-08-03T16:30:52.677Z,3.55
2022-08-03T16:34:00.948Z,3.90
2022-08-03T16:37:36.619Z,4.00
2022-08-03T16:40:36.346Z,3.42
2022-08-03T16:43:43.823Z,3.00
2022-08-03T16:46:51.202Z,2.95
2022-08-03T16:50:00.595Z,2.92
2022-08-03T16:53:16.438Z,3.55
2022-08-03T16:56:24.029Z,3.27
2022-08-03T16:59:36.282Z,3.40
2022-08-03T17:02:50.288Z,3.17
2022-08-03T17:05:59.649Z,3.45
2022-08-03T17:09:13.992Z,3.30
2022-08-03T17:12:21.496Z,3.33
2022-08-03T17:15:38.487Z,2.98
2022-08-03T17:19:01.992Z,3.30
2022-08-03T17:22:13.289Z,3.08
2022-08-03T17:25:39.932Z,3.30
2022-08-03T17:28:58.084Z,3.30
2022-08-03T17:32:09.761Z,3.10
2022-08-03T17:35:19.007Z,3.30
2022-08-03T17:38:28.959Z,3.37
2022-08-03T17:41:49.926Z,3.42
2022-08-03T17:44:58.694Z,3.35
2022-08-03T17:48:10.382Z,3.33
2022-08-03T17:51:35.024Z,3.70
2022-08-03T17:55:56.318Z,3.22
2022-08-03T17:58:38.684Z,3.70
2022-08-03T18:02:28.003Z,3.60
2022-08-03T18:06:10.418Z,3.80
2022-08-03T18:10:03.484Z,3.37
2022-08-03T18:12:51.850Z,3.55
2022-08-03T18:16:05.327Z,3.80
2022-08-03T18:19:13.739Z,3.50
2022-08-03T18:22:25.209Z,3.95
2022-08-03T18:25:45.431Z,3.87
2022-08-03T18:28:59.142Z,4.00
2022-08-03T18:32:16.718Z,4.05
2022-08-03T18:35:26.769Z,3.62
2022-08-03T18:38:55.552Z,4.17
2022-08-03T18:42:07.942Z,3.75
2022-08-03T18:45:57.351Z,4.42
2022-08-03T18:49:08.041Z,4.00
2022-08-03T18:52:19.076Z,4.30
2022-08-03T18:55:33.577Z,4.20
2022-08-03T18:58:51.451Z,4.72
2022-08-03T19:02:09.241Z,4.17
2022-08-03T19:05:21.746Z,4.37
2022-08-03T19:08:44.139Z,4.25
2022-08-03T19:12:11.051Z,4.37
2022-08-03T19:15:36.461Z,4.42
2022-08-03T19:18:48.414Z,4.75
2022-08-03T19:21:57.938Z,4.35
2022-08-03T19:25:07.163Z,4.60
2022-08-03T19:28:20.899Z,4.40
2022-08-03T19:31:40.556Z,5.20
2022-08-03T19:35:13.350Z,5.10
2022-08-03T19:38:29.510Z,5.25
2022-08-03T19:41:41.626Z,5.13
2022-08-03T19:44:57.197Z,5.50
2022-08-03T19:48:10.395Z,5.47
2022-08-03T19:51:18.280Z,5.28
2022-08-03T19:54:53.712Z,5.67
2022-08-03T19:58:03.848Z,6.03
2022-08-03T20:01:21.312Z,5.65
2022-08-03T20:04:29.214Z,6.40
2022-08-03T20:07:37.413Z,5.83
2022-08-03T20:10:49.230Z,5.58
2022-08-03T20:14:00.427Z,5.97
2022-08-03T20:17:09.322Z,5.75
2022-08-03T20:20:19.944Z,6.15
2022-08-03T20:23:37.413Z,5.65
2022-08-03T20:26:45.805Z,5.70
2022-08-03T20:30:06.429Z,5.47
2022-08-03T20:33:19.035Z,5.92
2022-08-03T20:36:27.776Z,5.53
2022-08-03T20:42:41.688Z,5.28
2022-08-03T20:46:01.009Z,5.22
2022-08-03T20:49:19.934Z,5.22
2022-08-03T20:52:32.627Z,5.57
2022-08-03T20:55:47.954Z,5.07
2022-08-03T20:59:15.229Z,4.97
2022-08-03T21:02:29.766Z,5.00
2022-08-03T21:05:51.007Z,5.35
2022-08-03T21:09:06.638Z,5.40
2022-08-03T21:12:19.815Z,5.67
2022-08-03T21:16:11.353Z,5.20
2022-08-03T21:19:06.075Z,5.28
2022-08-03T21:22:18.021Z,5.30
2022-08-03T21:25:27.353Z,5.22
2022-08-03T21:28:35.650Z,4.95
2022-08-03T21:31:44.634Z,5.53
2022-08-03T21:34:53.437Z,5.55
2022-08-03T21:38:20.044Z,5.50
2022-08-03T21:41:28.673Z,5.25
2022-08-03T21:44:36.121Z,5.12
2022-08-03T21:47:45.140Z,5.08
2022-08-03T21:50:54.559Z,5.62
2022-08-03T21:54:04.636Z,5.35
2022-08-03T21:57:20.316Z,5.28
2022-08-03T22:00:27.795Z,6.03
2022-08-03T22:03:53.279Z,6.30
2022-08-03T22:07:02.265Z,5.92
2022-08-03T22:10:10.778Z,6.08
2022-08-03T22:13:42.897Z,6.08
2022-08-03T22:16:48.399Z,6.27
2022-08-03T22:23:05.401Z,6.40
2022-08-03T22:26:17.096Z,6.50
2022-08-03T22:29:45.120Z,6.65
2022-08-03T22:32:56.658Z,6.45
2022-08-03T22:36:08.437Z,6.83
2022-08-03T22:39:22.804Z,6.80
2022-08-03T22:42:35.269Z,6.85
2022-08-03T22:46:08.930Z,6.80
2022-08-03T22:49:16.117Z,7.15
2022-08-03T22:55:30.286Z,6.50
2022-08-03T22:58:38.009Z,7.67
2022-08-03T23:01:48.647Z,7.22
2022-08-03T23:04:58.940Z,7.40
2022-08-03T23:08:09.950Z,7.22
2022-08-03T23:11:19.398Z,7.50
2022-08-03T23:14:30.382Z,7.65
2022-08-03T23:17:57.824Z,7.40
2022-08-03T23:21:11.054Z,8.28
2022-08-03T23:24:29.076Z,7.63
2022-08-03T23:27:41.486Z,8.08
2022-08-03T23:30:50.981Z,7.78
2022-08-03T23:34:17.281Z,8.08
2022-08-03T23:37:25.889Z,7.65
2022-08-03T23:40:34.606Z,8.03
2022-08-03T23:43:51.807Z,8.90
2022-08-03T23:47:01.463Z,8.45
2022-08-03T23:50:09.879Z,7.90
2022-08-03T23:53:30.170Z,8.27
2022-08-03T23:56:47.117Z,8.08
